sensor_id;sensor_type;location;lat;lon;timestamp;P1;durP1;ratioP1;P2;durP2;ratioP2
74749;SDS011;63269;53.330;-6.288;2022-09-20T00:01:13;7.60;;;5.55;;
74749;SDS011;63269;53.330;-6.288;2022-09-20T00:03:51;9.00;;;5.80;;
74749;SDS011;63269;53.330;-6.288;2022-09-20T00:06:21;7.95;;;5.90;;
74749;SDS011;63269;53.330;-6.288;2022-09-20T00:08:49;7.70;;;5.55;;
74749;SDS011;63269;53.330;-6.288;2022-09-20T00:11:16;8.85;;;5.80;;
74749;SDS011;63269;53.330;-6.288;2022-09-20T00:13:47;6.97;;;5.68;;
74749;SDS011;63269;53.330;-6.288;2022-09-20T00:16:15;7.28;;;5.88;;
74749;SDS011;63269;53.330;-6.288;2022-09-20T00:18:49;7.30;;;5.53;;
74749;SDS011;63269;53.330;-6.288;2022-09-20T00:21:16;9.07;;;6.10;;
74749;SDS011;63269;53.330;-6.288;2022-09-20T00:23:43;7.47;;;5.68;;
74749;SDS011;63269;53.330;-6.288;2022-09-20T00:26:09;7.30;;;5.57;;
74749;SDS011;63269;53.330;-6.288;2022-09-20T00:28:35;8.60;;;5.88;;
74749;SDS011;63269;53.330;-6.288;2022-09-20T00:31:00;7.82;;;6.05;;
74749;SDS011;63269;53.330;-6.288;2022-09-20T00:33:26;8.05;;;5.68;;
74749;SDS011;63269;53.330;-6.288;2022-09-20T00:36:11;5.72;;;4.78;;
74749;SDS011;63269;53.330;-6.288;2022-09-20T00:38:37;7.43;;;5.32;;
74749;SDS011;63269;53.330;-6.288;2022-09-20T00:41:02;7.72;;;5.78;;
74749;SDS011;63269;53.330;-6.288;2022-09-20T00:43:38;7.38;;;5.30;;
74749;SDS011;63269;53.330;-6.288;2022-09-20T00:48:43;7.07;;;5.00;;
74749;SDS011;63269;53.330;-6.288;2022-09-20T00:51:10;7.28;;;5.03;;
74749;SDS011;63269;53.330;-6.288;2022-09-20T00:53:38;6.93;;;5.65;;
74749;SDS011;63269;53.330;-6.288;2022-09-20T00:56:09;7.20;;;5.32;;
74749;SDS011;63269;53.330;-6.288;2022-09-20T00:58:44;9.52;;;5.78;;
74749;SDS011;63269;53.330;-6.288;2022-09-20T01:01:13;7.35;;;5.50;;
74749;SDS011;63269;53.330;-6.288;2022-09-20T01:03:39;7.55;;;5.35;;
74749;SDS011;63269;53.330;-6.288;2022-09-20T01:06:07;8.25;;;5.18;;
74749;SDS011;63269;53.330;-6.288;2022-09-20T01:08:35;7.38;;;5.53;;
74749;SDS011;63269;53.330;-6.288;2022-09-20T01:11:01;6.78;;;5.38;;
74749;SDS011;63269;53.330;-6.288;2022-09-20T01:13:26;7.45;;;5.22;;
74749;SDS011;63269;53.330;-6.288;2022-09-20T01:15:52;7.22;;;5.47;;
74749;SDS011;63269;53.330;-6.288;2022-09-20T01:18:18;6.75;;;5.47;;
74749;SDS011;63269;53.330;-6.288;2022-09-20T01:20:44;7.28;;;5.28;;
74749;SDS011;63269;53.330;-6.288;2022-09-20T01:28:35;6.70;;;5.10;;
74749;SDS011;63269;53.330;-6.288;2022-09-20T01:31:06;6.55;;;5.13;;
74749;SDS011;63269;53.330;-6.288;2022-09-20T01:33:39;7.75;;;5.88;;
74749;SDS011;63269;53.330;-6.288;2022-09-20T01:36:13;7.03;;;4.43;;
74749;SDS011;63269;53.330;-6.288;2022-09-20T01:38:46;6.53;;;5.03;;
74749;SDS011;63269;53.330;-6.288;2022-09-20T01:46:31;5.78;;;4.68;;
74749;SDS011;63269;53.330;-6.288;2022-09-20T02:00:29;6.75;;;5.15;;
74749;SDS011;63269;53.330;-6.288;2022-09-20T02:08:40;5.78;;;5.05;;
74749;SDS011;63269;53.330;-6.288;2022-09-20T02:11:20;6.80;;;5.10;;
74749;SDS011;63269;53.330;-6.288;2022-09-20T02:22:18;7.72;;;5.05;;
74749;SDS011;63269;53.330;-6.288;2022-09-20T02:24:55;6.43;;;4.88;;
74749;SDS011;63269;53.330;-6.288;2022-09-20T02:27:56;7.47;;;4.93;;
74749;SDS011;63269;53.330;-6.288;2022-09-20T02:46:17;6.35;;;4.78;;
74749;SDS011;63269;53.330;-6.288;2022-09-20T02:51:51;6.82;;;4.78;;
74749;SDS011;63269;53.330;-6.288;2022-09-20T02:57:14;6.68;;;5.20;;
74749;SDS011;63269;53.330;-6.288;2022-09-20T03:00:24;6.15;;;4.65;;
74749;SDS011;63269;53.330;-6.288;2022-09-20T03:03:12;8.07;;;4.90;;
74749;SDS011;63269;53.330;-6.288;2022-09-20T03:05:46;6.95;;;4.93;;
74749;SDS011;63269;53.330;-6.288;2022-09-20T03:08:18;7.25;;;4.80;;
74749;SDS011;63269;53.330;-6.288;2022-09-20T03:11:12;5.80;;;4.68;;
74749;SDS011;63269;53.330;-6.288;2022-09-20T03:16:44;6.82;;;4.82;;
74749;SDS011;63269;53.330;-6.288;2022-09-20T03:22:35;5.22;;;4.20;;
74749;SDS011;63269;53.330;-6.288;2022-09-20T03:56:11;5.53;;;3.97;;
74749;SDS011;63269;53.330;-6.288;2022-09-20T04:18:50;4.90;;;4.00;;
74749;SDS011;63269;53.330;-6.288;2022-09-20T04:27:40;6.10;;;4.28;;
74749;SDS011;63269;53.330;-6.288;2022-09-20T04:30:04;5.07;;;4.20;;
74749;SDS011;63269;53.330;-6.288;2022-09-20T04:32:41;5.25;;;4.03;;
74749;SDS011;63269;53.330;-6.288;2022-09-20T04:38:28;5.15;;;3.70;;
74749;SDS011;63269;53.330;-6.288;2022-09-20T04:49:03;4.93;;;4.07;;
74749;SDS011;63269;53.330;-6.288;2022-09-20T05:00:12;4.75;;;4.03;;
74749;SDS011;63269;53.330;-6.288;2022-09-20T05:06:00;6.70;;;3.97;;
74749;SDS011;63269;53.330;-6.288;2022-09-20T05:08:37;4.97;;;4.15;;
74749;SDS011;63269;53.330;-6.288;2022-09-20T05:14:21;5.88;;;4.20;;
74749;SDS011;63269;53.330;-6.288;2022-09-20T05:16:59;5.50;;;4.30;;
74749;SDS011;63269;53.330;-6.288;2022-09-20T05:22:02;4.75;;;3.70;;
74749;SDS011;63269;53.330;-6.288;2022-09-20T05:38:41;4.53;;;3.72;;
74749;SDS011;63269;53.330;-6.288;2022-09-20T05:47:10;4.80;;;4.05;;
74749;SDS011;63269;53.330;-6.288;2022-09-20T05:50:04;5.55;;;4.30;;
74749;SDS011;63269;53.330;-6.288;2022-09-20T06:06:03;5.15;;;3.67;;
74749;SDS011;63269;53.330;-6.288;2022-09-20T06:09:24;5.63;;;4.28;;
74749;SDS011;63269;53.330;-6.288;2022-09-20T06:22:20;4.80;;;4.00;;
74749;SDS011;63269;53.330;-6.288;2022-09-20T06:24:59;4.80;;;3.67;;
74749;SDS011;63269;53.330;-6.288;2022-09-20T06:27:29;5.53;;;4.07;;
74749;SDS011;63269;53.330;-6.288;2022-09-20T06:30:16;4.97;;;3.78;;
74749;SDS011;63269;53.330;-6.288;2022-09-20T06:32:56;6.65;;;4.20;;
74749;SDS011;63269;53.330;-6.288;2022-09-20T06:35:31;6.65;;;4.75;;
74749;SDS011;63269;53.330;-6.288;2022-09-20T06:38:18;5.50;;;4.32;;
74749;SDS011;63269;53.330;-6.288;2022-09-20T06:41:12;5.97;;;4.25;;
74749;SDS011;63269;53.330;-6.288;2022-09-20T06:43:58;5.38;;;3.83;;
74749;SDS011;63269;53.330;-6.288;2022-09-20T06:48:52;6.45;;;4.13;;
74749;SDS011;63269;53.330;-6.288;2022-09-20T06:51:18;5.45;;;3.97;;
74749;SDS011;63269;53.330;-6.288;2022-09-20T06:53:43;6.20;;;4.53;;
74749;SDS011;63269;53.330;-6.288;2022-09-20T06:56:16;6.95;;;4.30;;
74749;SDS011;63269;53.330;-6.288;2022-09-20T06:58:50;5.57;;;4.20;;
74749;SDS011;63269;53.330;-6.288;2022-09-20T07:01:17;5.25;;;4.43;;
74749;SDS011;63269;53.330;-6.288;2022-09-20T07:03:43;6.35;;;4.50;;
74749;SDS011;63269;53.330;-6.288;2022-09-20T07:06:08;4.78;;;3.88;;
74749;SDS011;63269;53.330;-6.288;2022-09-20T07:08:34;5.13;;;3.88;;
74749;SDS011;63269;53.330;-6.288;2022-09-20T07:11:04;5.90;;;4.03;;
74749;SDS011;63269;53.330;-6.288;2022-09-20T07:13:30;5.50;;;3.95;;
74749;SDS011;63269;53.330;-6.288;2022-09-20T07:16:00;4.95;;;4.13;;
74749;SDS011;63269;53.330;-6.288;2022-09-20T07:18:29;7.13;;;4.07;;
74749;SDS011;63269;53.330;-6.288;2022-09-20T07:20:55;7.63;;;4.88;;
74749;SDS011;63269;53.330;-6.288;2022-09-20T07:23:23;5.30;;;4.07;;
74749;SDS011;63269;53.330;-6.288;2022-09-20T07:25:49;5.93;;;4.10;;
74749;SDS011;63269;53.330;-6.288;2022-09-20T07:28:15;6.80;;;4.28;;
74749;SDS011;63269;53.330;-6.288;2022-09-20T07:30:44;5.68;;;4.30;;
74749;SDS011;63269;53.330;-6.288;2022-09-20T07:33:09;6.25;;;4.60;;
74749;SDS011;63269;53.330;-6.288;2022-09-20T07:35:35;5.97;;;4.30;;
74749;SDS011;63269;53.330;-6.288;2022-09-20T07:38:01;5.13;;;4.55;;
74749;SDS011;63269;53.330;-6.288;2022-09-20T07:40:27;5.60;;;4.45;;
74749;SDS011;63269;53.330;-6.288;2022-09-20T07:42:55;5.55;;;4.15;;
74749;SDS011;63269;53.330;-6.288;2022-09-20T07:45:21;6.07;;;4.43;;
74749;SDS011;63269;53.330;-6.288;2022-09-20T07:47:47;5.78;;;4.20;;
74749;SDS011;63269;53.330;-6.288;2022-09-20T07:50:13;6.55;;;4.25;;
74749;SDS011;63269;53.330;-6.288;2022-09-20T07:52:38;7.25;;;4.57;;
74749;SDS011;63269;53.330;-6.288;2022-09-20T07:55:04;8.35;;;4.68;;
74749;SDS011;63269;53.330;-6.288;2022-09-20T07:57:32;6.53;;;5.10;;
74749;SDS011;63269;53.330;-6.288;2022-09-20T07:59:58;9.50;;;4.60;;
74749;SDS011;63269;53.330;-6.288;2022-09-20T08:02:24;6.38;;;4.50;;
74749;SDS011;63269;53.330;-6.288;2022-09-20T08:04:49;7.63;;;4.85;;
74749;SDS011;63269;53.330;-6.288;2022-09-20T08:07:15;7.47;;;4.78;;
74749;SDS011;63269;53.330;-6.288;2022-09-20T08:09:40;6.97;;;4.53;;
74749;SDS011;63269;53.330;-6.288;2022-09-20T08:12:06;6.53;;;4.97;;
74749;SDS011;63269;53.330;-6.288;2022-09-20T08:14:32;6.57;;;4.60;;
74749;SDS011;63269;53.330;-6.288;2022-09-20T08:16:58;6.00;;;4.78;;
74749;SDS011;63269;53.330;-6.288;2022-09-20T08:19:24;8.98;;;4.40;;
74749;SDS011;63269;53.330;-6.288;2022-09-20T08:21:51;6.90;;;4.60;;
74749;SDS011;63269;53.330;-6.288;2022-09-20T08:24:20;6.72;;;4.47;;
74749;SDS011;63269;53.330;-6.288;2022-09-20T08:26:46;5.93;;;4.55;;
74749;SDS011;63269;53.330;-6.288;2022-09-20T08:29:12;4.85;;;4.18;;
74749;SDS011;63269;53.330;-6.288;2022-09-20T08:31:39;6.00;;;4.35;;
74749;SDS011;63269;53.330;-6.288;2022-09-20T08:34:08;7.82;;;4.97;;
74749;SDS011;63269;53.330;-6.288;2022-09-20T08:36:35;6.75;;;4.40;;
74749;SDS011;63269;53.330;-6.288;2022-09-20T08:39:04;6.60;;;4.63;;
74749;SDS011;63269;53.330;-6.288;2022-09-20T08:41:49;7.32;;;4.45;;
74749;SDS011;63269;53.330;-6.288;2022-09-20T08:44:54;9.07;;;4.65;;
74749;SDS011;63269;53.330;-6.288;2022-09-20T08:47:29;8.38;;;4.57;;
74749;SDS011;63269;53.330;-6.288;2022-09-20T08:49:55;7.75;;;4.75;;
74749;SDS011;63269;53.330;-6.288;2022-09-20T08:52:24;7.15;;;4.47;;
74749;SDS011;63269;53.330;-6.288;2022-09-20T08:54:54;8.82;;;4.40;;
74749;SDS011;63269;53.330;-6.288;2022-09-20T08:57:21;7.70;;;4.85;;
74749;SDS011;63269;53.330;-6.288;2022-09-20T08:59:47;14.10;;;4.88;;
74749;SDS011;63269;53.330;-6.288;2022-09-20T09:02:15;9.57;;;5.25;;
74749;SDS011;63269;53.330;-6.288;2022-09-20T09:04:42;10.80;;;4.50;;
74749;SDS011;63269;53.330;-6.288;2022-09-20T09:07:12;8.63;;;5.72;;
74749;SDS011;63269;53.330;-6.288;2022-09-20T09:09:40;8.65;;;5.20;;
74749;SDS011;63269;53.330;-6.288;2022-09-20T09:12:21;9.50;;;5.13;;
74749;SDS011;63269;53.330;-6.288;2022-09-20T09:15:36;6.85;;;4.32;;
74749;SDS011;63269;53.330;-6.288;2022-09-20T09:17:56;8.25;;;4.18;;
74749;SDS011;63269;53.330;-6.288;2022-09-20T09:20:22;6.80;;;4.45;;
74749;SDS011;63269;53.330;-6.288;2022-09-20T09:22:58;9.13;;;4.93;;
74749;SDS011;63269;53.330;-6.288;2022-09-20T09:25:29;7.63;;;4.60;;
74749;SDS011;63269;53.330;-6.288;2022-09-20T09:30:36;8.35;;;4.53;;
74749;SDS011;63269;53.330;-6.288;2022-09-20T09:36:11;8.77;;;5.03;;
74749;SDS011;63269;53.330;-6.288;2022-09-20T09:38:39;7.72;;;4.72;;
74749;SDS011;63269;53.330;-6.288;2022-09-20T09:41:27;6.22;;;4.18;;
74749;SDS011;63269;53.330;-6.288;2022-09-20T09:43:58;7.82;;;4.90;;
74749;SDS011;63269;53.330;-6.288;2022-09-20T09:46:25;6.53;;;4.78;;
74749;SDS011;63269;53.330;-6.288;2022-09-20T09:54:19;5.85;;;4.30;;
74749;SDS011;63269;53.330;-6.288;2022-09-20T10:05:04;7.10;;;5.18;;
74749;SDS011;63269;53.330;-6.288;2022-09-20T10:22:04;6.88;;;4.88;;
74749;SDS011;63269;53.330;-6.288;2022-09-20T10:30:07;5.22;;;3.90;;
74749;SDS011;63269;53.330;-6.288;2022-09-20T10:32:41;5.80;;;4.55;;
74749;SDS011;63269;53.330;-6.288;2022-09-20T10:38:22;5.32;;;4.28;;
74749;SDS011;63269;53.330;-6.288;2022-09-20T10:51:55;5.60;;;4.43;;
74749;SDS011;63269;53.330;-6.288;2022-09-20T10:59:57;6.35;;;4.60;;
74749;SDS011;63269;53.330;-6.288;2022-09-20T11:02:53;6.03;;;4.60;;
74749;SDS011;63269;53.330;-6.288;2022-09-20T11:06:00;6.85;;;4.47;;
74749;SDS011;63269;53.330;-6.288;2022-09-20T11:08:34;5.55;;;4.22;;
74749;SDS011;63269;53.330;-6.288;2022-09-20T11:14:09;5.20;;;4.32;;
74749;SDS011;63269;53.330;-6.288;2022-09-20T11:19:25;7.17;;;4.40;;
74749;SDS011;63269;53.330;-6.288;2022-09-20T11:22:17;5.35;;;4.07;;
74749;SDS011;63269;53.330;-6.288;2022-09-20T11:24:44;4.80;;;4.13;;
74749;SDS011;63269;53.330;-6.288;2022-09-20T11:27:14;6.30;;;4.27;;
74749;SDS011;63269;53.330;-6.288;2022-09-20T11:29:45;5.35;;;4.35;;
74749;SDS011;63269;53.330;-6.288;2022-09-20T11:32:23;6.03;;;4.47;;
74749;SDS011;63269;53.330;-6.288;2022-09-20T11:35:03;5.20;;;4.47;;
74749;SDS011;63269;53.330;-6.288;2022-09-20T11:37:42;5.78;;;4.40;;
74749;SDS011;63269;53.330;-6.288;2022-09-20T11:42:55;7.38;;;4.25;;
74749;SDS011;63269;53.330;-6.288;2022-09-20T11:45:21;6.32;;;4.93;;
74749;SDS011;63269;53.330;-6.288;2022-09-20T11:47:48;6.95;;;4.40;;
74749;SDS011;63269;53.330;-6.288;2022-09-20T11:53:42;5.90;;;4.80;;
74749;SDS011;63269;53.330;-6.288;2022-09-20T11:56:24;6.78;;;4.93;;
74749;SDS011;63269;53.330;-6.288;2022-09-20T11:58:51;10.80;;;5.50;;
74749;SDS011;63269;53.330;-6.288;2022-09-20T12:01:28;7.30;;;5.03;;
74749;SDS011;63269;53.330;-6.288;2022-09-20T12:09:43;8.75;;;4.50;;
74749;SDS011;63269;53.330;-6.288;2022-09-20T12:12:43;16.70;;;5.35;;
74749;SDS011;63269;53.330;-6.288;2022-09-20T12:15:04;22.45;;;5.30;;
74749;SDS011;63269;53.330;-6.288;2022-09-20T12:28:49;19.92;;;5.47;;
74749;SDS011;63269;53.330;-6.288;2022-09-20T12:36:23;12.80;;;4.38;;
74749;SDS011;63269;53.330;-6.288;2022-09-20T12:41:49;14.95;;;4.88;;
74749;SDS011;63269;53.330;-6.288;2022-09-20T12:46:55;11.20;;;5.10;;
74749;SDS011;63269;53.330;-6.288;2022-09-20T13:09:16;19.20;;;5.82;;
74749;SDS011;63269;53.330;-6.288;2022-09-20T13:13:48;13.18;;;4.75;;
74749;SDS011;63269;53.330;-6.288;2022-09-20T13:16:20;15.98;;;6.15;;
74749;SDS011;63269;53.330;-6.288;2022-09-20T13:19:17;13.85;;;4.72;;
74749;SDS011;63269;53.330;-6.288;2022-09-20T13:21:44;10.00;;;4.43;;
74749;SDS011;63269;53.330;-6.288;2022-09-20T13:24:27;23.88;;;9.45;;
74749;SDS011;63269;53.330;-6.288;2022-09-20T13:26:59;27.38;;;10.43;;
74749;SDS011;63269;53.330;-6.288;2022-09-20T13:29:31;36.70;;;17.10;;
74749;SDS011;63269;53.330;-6.288;2022-09-20T13:32:17;29.70;;;14.43;;
74749;SDS011;63269;53.330;-6.288;2022-09-20T13:35:03;43.40;;;19.38;;
74749;SDS011;63269;53.330;-6.288;2022-09-20T13:37:32;42.85;;;17.52;;
74749;SDS011;63269;53.330;-6.288;2022-09-20T13:39:58;45.10;;;19.48;;
74749;SDS011;63269;53.330;-6.288;2022-09-20T13:42:24;43.50;;;21.23;;
74749;SDS011;63269;53.330;-6.288;2022-09-20T13:44:50;56.85;;;20.70;;
74749;SDS011;63269;53.330;-6.288;2022-09-20T13:47:23;39.60;;;17.55;;
74749;SDS011;63269;53.330;-6.288;2022-09-20T13:49:50;32.63;;;15.65;;
74749;SDS011;63269;53.330;-6.288;2022-09-20T13:52:22;36.60;;;16.45;;
74749;SDS011;63269;53.330;-6.288;2022-09-20T13:54:52;29.00;;;14.55;;
74749;SDS011;63269;53.330;-6.288;2022-09-20T13:57:25;38.33;;;14.95;;
74749;SDS011;63269;53.330;-6.288;2022-09-20T13:59:52;31.45;;;13.82;;
74749;SDS011;63269;53.330;-6.288;2022-09-20T14:02:31;33.15;;;13.95;;
74749;SDS011;63269;53.330;-6.288;2022-09-20T14:05:00;31.13;;;14.45;;
74749;SDS011;63269;53.330;-6.288;2022-09-20T14:07:28;35.58;;;15.55;;
74749;SDS011;63269;53.330;-6.288;2022-09-20T14:09:55;34.00;;;13.70;;
74749;SDS011;63269;53.330;-6.288;2022-09-20T14:12:21;28.67;;;13.35;;
74749;SDS011;63269;53.330;-6.288;2022-09-20T14:14:48;30.38;;;12.30;;
74749;SDS011;63269;53.330;-6.288;2022-09-20T14:17:15;30.10;;;12.77;;
74749;SDS011;63269;53.330;-6.288;2022-09-20T14:19:46;24.67;;;12.07;;
74749;SDS011;63269;53.330;-6.288;2022-09-20T14:22:18;24.83;;;12.60;;
74749;SDS011;63269;53.330;-6.288;2022-09-20T14:24:55;25.40;;;11.88;;
74749;SDS011;63269;53.330;-6.288;2022-09-20T14:27:28;24.98;;;11.18;;
74749;SDS011;63269;53.330;-6.288;2022-09-20T14:29:55;26.05;;;11.88;;
74749;SDS011;63269;53.330;-6.288;2022-09-20T14:32:23;27.33;;;12.00;;
74749;SDS011;63269;53.330;-6.288;2022-09-20T14:42:45;29.90;;;11.02;;
74749;SDS011;63269;53.330;-6.288;2022-09-20T14:45:49;21.58;;;10.27;;
74749;SDS011;63269;53.330;-6.288;2022-09-20T14:50:36;24.63;;;10.25;;
74749;SDS011;63269;53.330;-6.288;2022-09-20T14:53:25;26.75;;;11.38;;
74749;SDS011;63269;53.330;-6.288;2022-09-20T14:58:28;21.67;;;9.82;;
74749;SDS011;63269;53.330;-6.288;2022-09-20T15:01:05;23.65;;;9.88;;
74749;SDS011;63269;53.330;-6.288;2022-09-20T15:03:47;20.55;;;9.45;;
74749;SDS011;63269;53.330;-6.288;2022-09-20T15:06:12;17.63;;;9.23;;
74749;SDS011;63269;53.330;-6.288;2022-09-20T15:08:38;19.63;;;9.13;;
74749;SDS011;63269;53.330;-6.288;2022-09-20T15:11:04;16.20;;;9.00;;
74749;SDS011;63269;53.330;-6.288;2022-09-20T15:13:30;19.08;;;9.70;;
74749;SDS011;63269;53.330;-6.288;2022-09-20T15:15:55;15.00;;;9.15;;
74749;SDS011;63269;53.330;-6.288;2022-09-20T15:18:23;23.60;;;10.38;;
74749;SDS011;63269;53.330;-6.288;2022-09-20T15:20:51;15.93;;;9.35;;
74749;SDS011;63269;53.330;-6.288;2022-09-20T15:23:18;17.38;;;8.90;;
74749;SDS011;63269;53.330;-6.288;2022-09-20T15:25:43;15.32;;;8.70;;
74749;SDS011;63269;53.330;-6.288;2022-09-20T15:28:13;15.38;;;8.35;;
74749;SDS011;63269;53.330;-6.288;2022-09-20T15:30:41;20.95;;;10.05;;
74749;SDS011;63269;53.330;-6.288;2022-09-20T15:33:08;15.50;;;8.55;;
74749;SDS011;63269;53.330;-6.288;2022-09-20T15:35:35;17.10;;;9.48;;
74749;SDS011;63269;53.330;-6.288;2022-09-20T15:38:01;17.80;;;9.27;;
74749;SDS011;63269;53.330;-6.288;2022-09-20T15:40:26;19.67;;;9.90;;
74749;SDS011;63269;53.330;-6.288;2022-09-20T15:42:55;17.25;;;9.13;;
74749;SDS011;63269;53.330;-6.288;2022-09-20T15:45:22;17.17;;;8.30;;
74749;SDS011;63269;53.330;-6.288;2022-09-20T15:47:49;14.15;;;8.30;;
74749;SDS011;63269;53.330;-6.288;2022-09-20T15:50:15;17.00;;;8.85;;
74749;SDS011;63269;53.330;-6.288;2022-09-20T15:52:43;13.27;;;7.45;;
74749;SDS011;63269;53.330;-6.288;2022-09-20T15:55:09;16.20;;;7.82;;
74749;SDS011;63269;53.330;-6.288;2022-09-20T15:57:34;12.50;;;7.28;;
74749;SDS011;63269;53.330;-6.288;2022-09-20T16:00:00;13.27;;;8.35;;
74749;SDS011;63269;53.330;-6.288;2022-09-20T16:02:26;11.50;;;7.47;;
74749;SDS011;63269;53.330;-6.288;2022-09-20T16:04:52;15.80;;;8.60;;
74749;SDS011;63269;53.330;-6.288;2022-09-20T16:07:21;15.57;;;7.57;;
74749;SDS011;63269;53.330;-6.288;2022-09-20T16:09:50;14.23;;;8.52;;
74749;SDS011;63269;53.330;-6.288;2022-09-20T16:12:17;14.57;;;8.20;;
74749;SDS011;63269;53.330;-6.288;2022-09-20T16:14:43;14.55;;;7.85;;
74749;SDS011;63269;53.330;-6.288;2022-09-20T16:17:08;13.10;;;6.97;;
74749;SDS011;63269;53.330;-6.288;2022-09-20T16:19:34;12.60;;;7.20;;
74749;SDS011;63269;53.330;-6.288;2022-09-20T16:21:59;12.02;;;7.00;;
74749;SDS011;63269;53.330;-6.288;2022-09-20T16:24:29;11.02;;;7.30;;
74749;SDS011;63269;53.330;-6.288;2022-09-20T16:29:21;14.20;;;7.22;;
74749;SDS011;63269;53.330;-6.288;2022-09-20T16:31:49;11.20;;;7.47;;
74749;SDS011;63269;53.330;-6.288;2022-09-20T16:34:15;12.40;;;7.75;;
74749;SDS011;63269;53.330;-6.288;2022-09-20T16:36:46;11.65;;;7.80;;
74749;SDS011;63269;53.330;-6.288;2022-09-20T16:39:13;10.50;;;7.00;;
74749;SDS011;63269;53.330;-6.288;2022-09-20T16:41:40;11.77;;;6.60;;
74749;SDS011;63269;53.330;-6.288;2022-09-20T16:44:05;10.38;;;7.22;;
74749;SDS011;63269;53.330;-6.288;2022-09-20T16:46:31;12.45;;;7.53;;
74749;SDS011;63269;53.330;-6.288;2022-09-20T16:49:01;11.65;;;7.63;;
74749;SDS011;63269;53.330;-6.288;2022-09-20T16:51:31;12.30;;;6.93;;
74749;SDS011;63269;53.330;-6.288;2022-09-20T16:54:02;11.20;;;7.10;;
74749;SDS011;63269;53.330;-6.288;2022-09-20T16:56:32;11.70;;;6.63;;
74749;SDS011;63269;53.330;-6.288;2022-09-20T17:01:28;12.25;;;7.18;;
74749;SDS011;63269;53.330;-6.288;2022-09-20T17:03:53;12.40;;;6.25;;
74749;SDS011;63269;53.330;-6.288;2022-09-20T17:06:19;15.40;;;7.80;;
74749;SDS011;63269;53.330;-6.288;2022-09-20T17:08:45;8.23;;;6.00;;
74749;SDS011;63269;53.330;-6.288;2022-09-20T17:11:12;10.98;;;7.10;;
74749;SDS011;63269;53.330;-6.288;2022-09-20T17:13:40;10.68;;;6.68;;
74749;SDS011;63269;53.330;-6.288;2022-09-20T17:16:13;9.80;;;6.25;;
74749;SDS011;63269;53.330;-6.288;2022-09-20T17:18:40;10.05;;;6.38;;
74749;SDS011;63269;53.330;-6.288;2022-09-20T17:21:08;10.18;;;7.53;;
74749;SDS011;63269;53.330;-6.288;2022-09-20T17:23:35;8.63;;;6.72;;
74749;SDS011;63269;53.330;-6.288;2022-09-20T17:26:19;9.55;;;6.53;;
74749;SDS011;63269;53.330;-6.288;2022-09-20T17:28:53;10.10;;;5.95;;
74749;SDS011;63269;53.330;-6.288;2022-09-20T17:31:24;10.02;;;6.90;;
74749;SDS011;63269;53.330;-6.288;2022-09-20T17:33:53;9.95;;;6.40;;
74749;SDS011;63269;53.330;-6.288;2022-09-20T17:36:19;9.63;;;6.30;;
74749;SDS011;63269;53.330;-6.288;2022-09-20T17:38:45;10.57;;;6.55;;
74749;SDS011;63269;53.330;-6.288;2022-09-20T17:41:12;9.07;;;5.60;;
74749;SDS011;63269;53.330;-6.288;2022-09-20T17:43:40;9.40;;;6.15;;
74749;SDS011;63269;53.330;-6.288;2022-09-20T17:46:10;10.32;;;6.07;;
74749;SDS011;63269;53.330;-6.288;2022-09-20T17:48:37;9.55;;;6.57;;
74749;SDS011;63269;53.330;-6.288;2022-09-20T17:51:04;10.80;;;6.57;;
74749;SDS011;63269;53.330;-6.288;2022-09-20T17:53:32;8.98;;;6.60;;
74749;SDS011;63269;53.330;-6.288;2022-09-20T17:55:59;8.70;;;6.15;;
74749;SDS011;63269;53.330;-6.288;2022-09-20T17:58:25;11.00;;;6.13;;
74749;SDS011;63269;53.330;-6.288;2022-09-20T18:00:51;9.00;;;6.90;;
74749;SDS011;63269;53.330;-6.288;2022-09-20T18:03:22;9.63;;;6.63;;
74749;SDS011;63269;53.330;-6.288;2022-09-20T18:05:48;8.45;;;5.85;;
74749;SDS011;63269;53.330;-6.288;2022-09-20T18:08:14;9.27;;;5.70;;
74749;SDS011;63269;53.330;-6.288;2022-09-20T18:10:41;8.45;;;5.50;;
74749;SDS011;63269;53.330;-6.288;2022-09-20T18:13:06;7.93;;;5.68;;
74749;SDS011;63269;53.330;-6.288;2022-09-20T18:15:32;8.32;;;5.68;;
74749;SDS011;63269;53.330;-6.288;2022-09-20T18:17:58;9.43;;;5.78;;
74749;SDS011;63269;53.330;-6.288;2022-09-20T18:20:23;12.65;;;5.72;;
74749;SDS011;63269;53.330;-6.288;2022-09-20T18:22:49;11.43;;;6.13;;
74749;SDS011;63269;53.330;-6.288;2022-09-20T18:25:14;7.70;;;4.90;;
74749;SDS011;63269;53.330;-6.288;2022-09-20T18:27:40;10.68;;;5.38;;
74749;SDS011;63269;53.330;-6.288;2022-09-20T18:30:06;12.32;;;5.35;;
74749;SDS011;63269;53.330;-6.288;2022-09-20T18:32:32;7.72;;;5.40;;
74749;SDS011;63269;53.330;-6.288;2022-09-20T18:34:57;10.60;;;5.35;;
74749;SDS011;63269;53.330;-6.288;2022-09-20T18:37:23;8.18;;;5.20;;
74749;SDS011;63269;53.330;-6.288;2022-09-20T18:39:48;7.90;;;5.93;;
74749;SDS011;63269;53.330;-6.288;2022-09-20T18:42:14;8.77;;;5.32;;
74749;SDS011;63269;53.330;-6.288;2022-09-20T18:44:40;7.90;;;5.28;;
74749;SDS011;63269;53.330;-6.288;2022-09-20T18:47:08;10.35;;;5.28;;
74749;SDS011;63269;53.330;-6.288;2022-09-20T18:49:33;9.75;;;5.75;;
74749;SDS011;63269;53.330;-6.288;2022-09-20T18:51:59;8.20;;;5.05;;
74749;SDS011;63269;53.330;-6.288;2022-09-20T18:54:25;8.68;;;5.30;;
74749;SDS011;63269;53.330;-6.288;2022-09-20T18:56:54;8.45;;;4.72;;
74749;SDS011;63269;53.330;-6.288;2022-09-20T18:59:20;7.95;;;5.22;;
74749;SDS011;63269;53.330;-6.288;2022-09-20T19:09:55;11.38;;;5.30;;
74749;SDS011;63269;53.330;-6.288;2022-09-20T19:12:38;9.57;;;5.22;;
74749;SDS011;63269;53.330;-6.288;2022-09-20T19:17:42;8.27;;;4.87;;
74749;SDS011;63269;53.330;-6.288;2022-09-20T19:23:34;13.77;;;6.93;;
74749;SDS011;63269;53.330;-6.288;2022-09-20T19:28:48;16.30;;;5.93;;
74749;SDS011;63269;53.330;-6.288;2022-09-20T19:31:25;13.15;;;5.10;;
74749;SDS011;63269;53.330;-6.288;2022-09-20T19:33:53;16.13;;;5.72;;
74749;SDS011;63269;53.330;-6.288;2022-09-20T19:36:20;16.00;;;6.93;;
74749;SDS011;63269;53.330;-6.288;2022-09-20T19:38:53;16.80;;;7.07;;
74749;SDS011;63269;53.330;-6.288;2022-09-20T19:49:38;30.45;;;17.17;;
74749;SDS011;63269;53.330;-6.288;2022-09-20T19:52:23;11.88;;;7.50;;
74749;SDS011;63269;53.330;-6.288;2022-09-20T19:54:49;16.55;;;8.13;;
74749;SDS011;63269;53.330;-6.288;2022-09-20T19:57:17;15.68;;;8.57;;
74749;SDS011;63269;53.330;-6.288;2022-09-20T19:59:47;15.75;;;7.57;;
74749;SDS011;63269;53.330;-6.288;2022-09-20T20:02:14;13.13;;;7.53;;
74749;SDS011;63269;53.330;-6.288;2022-09-20T20:04:41;13.18;;;7.45;;
74749;SDS011;63269;53.330;-6.288;2022-09-20T20:09:50;12.18;;;6.72;;
74749;SDS011;63269;53.330;-6.288;2022-09-20T20:13:04;11.43;;;5.90;;
74749;SDS011;63269;53.330;-6.288;2022-09-20T20:15:33;11.88;;;6.00;;
74749;SDS011;63269;53.330;-6.288;2022-09-20T20:18:43;10.30;;;6.88;;
74749;SDS011;63269;53.330;-6.288;2022-09-20T20:21:46;8.13;;;5.38;;
74749;SDS011;63269;53.330;-6.288;2022-09-20T20:24:22;10.10;;;6.18;;
74749;SDS011;63269;53.330;-6.288;2022-09-20T20:26:50;9.50;;;5.28;;
74749;SDS011;63269;53.330;-6.288;2022-09-20T20:29:15;9.45;;;5.93;;
74749;SDS011;63269;53.330;-6.288;2022-09-20T20:31:41;10.98;;;5.93;;
74749;SDS011;63269;53.330;-6.288;2022-09-20T20:34:06;14.18;;;5.60;;
74749;SDS011;63269;53.330;-6.288;2022-09-20T20:36:33;10.13;;;6.65;;
74749;SDS011;63269;53.330;-6.288;2022-09-20T20:38:58;9.18;;;5.72;;
74749;SDS011;63269;53.330;-6.288;2022-09-20T20:41:24;9.63;;;5.30;;
74749;SDS011;63269;53.330;-6.288;2022-09-20T20:43:51;13.63;;;5.82;;
74749;SDS011;63269;53.330;-6.288;2022-09-20T20:46:20;10.55;;;5.45;;
74749;SDS011;63269;53.330;-6.288;2022-09-20T20:48:46;11.57;;;5.18;;
74749;SDS011;63269;53.330;-6.288;2022-09-20T20:51:12;19.23;;;5.18;;
74749;SDS011;63269;53.330;-6.288;2022-09-20T20:53:40;8.38;;;5.00;;
74749;SDS011;63269;53.330;-6.288;2022-09-20T20:56:11;7.50;;;5.32;;